createdAt,value
2018-08-06T00:00:36.189Z,20.65
2018-08-06T00:03:05.166Z,20.71
2018-08-06T00:05:34.122Z,20.77
2018-08-06T00:08:03.178Z,20.72
2018-08-06T00:10:32.136Z,20.57
2018-08-06T00:13:01.121Z,20.63
2018-08-06T00:15:30.175Z,20.49
2018-08-06T00:17:59.138Z,20.46
2018-08-06T00:20:28.059Z,20.53
2018-08-06T00:22:57.007Z,20.42
2018-08-06T00:25:26.019Z,20.43
2018-08-06T00:27:54.938Z,20.25
2018-08-06T00:30:23.859Z,20.29
2018-08-06T00:32:52.822Z,20.19
2018-08-06T00:35:21.826Z,20.06
2018-08-06T00:37:50.766Z,19.92
2018-08-06T00:40:20.967Z,20.00
2018-08-06T00:42:50.311Z,20.08
2018-08-06T00:45:20.532Z,20.10
2018-08-06T00:47:49.896Z,20.12
2018-08-06T00:50:18.830Z,20.03
2018-08-06T00:52:47.787Z,20.08
2018-08-06T00:55:18.274Z,19.91
2018-08-06T00:57:47.238Z,19.83
2018-08-06T01:00:17.428Z,19.90
2018-08-06T01:02:46.407Z,19.91
2018-08-06T01:05:15.955Z,19.89
2018-08-06T01:07:46.017Z,19.89
2018-08-06T01:10:16.260Z,19.90
2018-08-06T01:12:45.298Z,19.90
2018-08-06T01:15:17.603Z,20.13
2018-08-06T01:17:46.533Z,20.12
2018-08-06T01:20:15.792Z,19.96
2018-08-06T01:22:45.472Z,19.88
2018-08-06T01:25:14.846Z,19.96
2018-08-06T01:27:43.835Z,19.94
2018-08-06T01:30:14.058Z,19.96
2018-08-06T01:32:43.261Z,19.94
2018-08-06T01:35:12.473Z,19.73
2018-08-06T01:37:41.474Z,19.40
2018-08-06T01:40:13.127Z,19.52
2018-08-06T01:42:42.283Z,19.40
2018-08-06T01:45:12.722Z,19.47
2018-08-06T01:47:41.658Z,19.51
2018-08-06T01:50:11.470Z,19.60
2018-08-06T01:52:40.815Z,19.68
2018-08-06T01:55:09.754Z,19.40
2018-08-06T01:57:38.734Z,19.36
2018-08-06T02:00:12.535Z,19.41
2018-08-06T02:02:41.567Z,19.40
2018-08-06T02:05:10.939Z,19.41
2018-08-06T02:07:40.368Z,19.40
2018-08-06T02:10:11.914Z,19.46
2018-08-06T02:12:41.250Z,19.45
2018-08-06T02:15:10.957Z,19.35
2018-08-06T02:17:40.164Z,19.37
2018-08-06T02:20:11.144Z,19.24
2018-08-06T02:22:40.094Z,19.29
2018-08-06T02:25:09.871Z,19.33
2018-08-06T02:27:38.806Z,19.31
2018-08-06T02:30:10.824Z,19.21
2018-08-06T02:32:40.056Z,19.04
2018-08-06T02:35:11.090Z,19.11
2018-08-06T02:37:40.667Z,19.14
2018-08-06T02:40:11.663Z,19.06
2018-08-06T02:42:40.650Z,19.12
2018-08-06T02:45:10.276Z,19.12
2018-08-06T02:47:39.844Z,19.17
2018-08-06T02:50:10.098Z,19.23
2018-08-06T02:52:39.454Z,19.23
2018-08-06T02:55:09.998Z,19.18
2018-08-06T02:57:38.946Z,18.97
2018-08-06T03:00:10.972Z,19.05
2018-08-06T03:02:40.018Z,18.65
2018-08-06T03:05:11.074Z,18.79
2018-08-06T03:07:40.220Z,18.73
2018-08-06T03:10:09.223Z,18.78
2018-08-06T03:12:38.252Z,18.51
2018-08-06T03:15:08.194Z,18.52
2018-08-06T03:17:37.346Z,18.43
2018-08-06T03:20:07.681Z,18.73
2018-08-06T03:22:37.461Z,18.99
2018-08-06T03:25:07.784Z,18.84
2018-08-06T03:27:36.784Z,18.67
2018-08-06T03:30:08.063Z,18.66
2018-08-06T03:32:37.003Z,19.02
2018-08-06T03:35:07.095Z,19.06
2018-08-06T03:37:36.139Z,19.13
2018-08-06T03:40:05.153Z,18.92
2018-08-06T03:42:34.056Z,19.04
2018-08-06T03:45:03.150Z,18.73
2018-08-06T03:47:32.084Z,18.27
2018-08-06T03:50:01.033Z,18.59
2018-08-06T03:52:30.203Z,18.78
2018-08-06T03:54:59.128Z,18.59
2018-08-06T03:57:28.130Z,18.60
2018-08-06T03:59:57.213Z,18.54
2018-08-06T04:02:26.140Z,18.51
2018-08-06T04:04:55.132Z,18.52
2018-08-06T04:07:24.142Z,18.41
2018-08-06T04:09:53.363Z,18.41
2018-08-06T04:12:22.299Z,18.36
2018-08-06T04:14:51.239Z,18.42
2018-08-06T04:17:20.188Z,18.40
2018-08-06T04:19:49.314Z,18.36
2018-08-06T04:22:18.241Z,18.38
2018-08-06T04:24:47.963Z,18.19
2018-08-06T04:27:16.927Z,18.34
2018-08-06T04:29:45.833Z,18.23
2018-08-06T04:32:14.868Z,18.30
2018-08-06T04:34:43.809Z,18.33
2018-08-06T04:37:12.809Z,18.27
2018-08-06T04:39:41.706Z,18.43
2018-08-06T04:42:10.716Z,18.53
2018-08-06T04:44:39.656Z,18.37
2018-08-06T04:47:08.610Z,18.15
2018-08-06T04:49:37.613Z,18.52
2018-08-06T04:52:06.807Z,18.46
2018-08-06T04:54:35.739Z,18.58
2018-08-06T04:57:04.803Z,18.71
2018-08-06T04:59:33.989Z,18.77
2018-08-06T05:02:02.985Z,18.83
2018-08-06T05:04:32.147Z,19.15
2018-08-06T05:07:01.257Z,19.06
2018-08-06T05:09:46.196Z,19.30
2018-08-06T05:12:15.189Z,19.11
2018-08-06T05:14:44.126Z,19.30
2018-08-06T05:17:13.155Z,19.33
2018-08-06T05:19:42.055Z,19.52
2018-08-06T05:22:11.033Z,19.66
2018-08-06T05:24:40.030Z,19.66
2018-08-06T05:27:08.925Z,19.74
2018-08-06T05:29:37.881Z,19.71
2018-08-06T05:32:06.852Z,19.97
2018-08-06T05:34:35.822Z,19.93
2018-08-06T05:37:04.821Z,19.84
2018-08-06T05:39:34.012Z,19.97
2018-08-06T05:42:03.006Z,20.03
2018-08-06T05:44:32.055Z,19.96
2018-08-06T05:47:01.057Z,20.11
2018-08-06T05:49:30.071Z,19.98
2018-08-06T05:51:59.023Z,20.06
2018-08-06T05:54:28.096Z,20.23
2018-08-06T05:56:57.046Z,20.27
2018-08-06T05:59:26.003Z,20.25
2018-08-06T06:01:54.935Z,20.17
2018-08-06T06:04:23.892Z,20.30
2018-08-06T06:06:52.847Z,20.34
2018-08-06T06:09:21.834Z,20.29
2018-08-06T06:11:50.778Z,20.34
2018-08-06T06:14:19.708Z,20.33
2018-08-06T06:16:48.610Z,20.49
2018-08-06T06:19:17.591Z,20.65
2018-08-06T06:21:46.458Z,20.88
2018-08-06T06:24:15.412Z,20.97
2018-08-06T06:26:44.338Z,21.05
2018-08-06T06:29:13.310Z,21.09
2018-08-06T06:31:42.231Z,21.26
2018-08-06T06:34:11.158Z,21.43
2018-08-06T06:36:40.148Z,21.04
2018-08-06T06:39:10.581Z,21.43
2018-08-06T06:41:39.958Z,21.60
2018-08-06T06:44:09.445Z,21.48
2018-08-06T06:46:39.347Z,21.85
2018-08-06T06:49:08.745Z,22.05
2018-08-06T06:51:37.759Z,22.15
2018-08-06T06:54:06.987Z,22.19
2018-08-06T06:56:36.083Z,22.37
2018-08-06T06:59:05.158Z,22.38
2018-08-06T07:01:34.141Z,22.53
2018-08-06T07:04:03.103Z,22.67
2018-08-06T07:06:32.112Z,22.81
2018-08-06T07:09:01.031Z,22.66
2018-08-06T07:11:29.993Z,22.77
2018-08-06T07:13:59.015Z,23.03
2018-08-06T07:16:27.958Z,22.91
2018-08-06T07:18:56.938Z,23.08
2018-08-06T07:21:25.921Z,23.43
2018-08-06T07:23:54.925Z,23.66
2018-08-06T07:26:23.869Z,23.86
2018-08-06T07:28:52.824Z,24.03
2018-08-06T07:31:21.822Z,24.32
2018-08-06T07:33:50.834Z,24.69
2018-08-06T07:36:19.783Z,25.93
2018-08-06T07:38:48.764Z,26.92
2018-08-06T07:41:17.680Z,29.22
2018-08-06T07:43:46.711Z,30.54
2018-08-06T07:46:15.698Z,30.54
2018-08-06T07:48:44.638Z,31.62
2018-08-06T07:51:13.614Z,31.37
2018-08-06T07:53:42.868Z,32.60
2018-08-06T07:56:12.618Z,31.94
2018-08-06T07:58:42.263Z,33.38
2018-08-06T08:01:11.672Z,33.26
2018-08-06T08:03:40.878Z,34.14
2018-08-06T08:06:10.110Z,33.30
2018-08-06T08:08:39.070Z,31.66
2018-08-06T08:11:08.322Z,29.89
2018-08-06T08:13:37.379Z,28.73
2018-08-06T08:16:07.191Z,27.51
2018-08-06T08:18:36.610Z,28.13
2018-08-06T08:21:05.706Z,28.52
2018-08-06T08:23:34.823Z,29.36
2018-08-06T08:26:03.903Z,28.44
2018-08-06T08:28:33.014Z,29.56
2018-08-06T08:31:02.351Z,30.39
2018-08-06T08:33:31.581Z,29.69
2018-08-06T08:36:00.535Z,30.03
2018-08-06T08:38:29.346Z,29.30
2018-08-06T08:40:58.490Z,29.56
2018-08-06T08:43:27.812Z,30.25
2018-08-06T08:45:56.839Z,30.53
2018-08-06T08:48:25.965Z,31.35
2018-08-06T08:50:56.307Z,31.77
2018-08-06T08:53:25.600Z,32.11
2018-08-06T08:55:54.662Z,30.53
2018-08-06T08:58:23.616Z,29.89
2018-08-06T09:00:52.883Z,31.09
2018-08-06T09:03:21.823Z,31.88
2018-08-06T09:05:51.055Z,32.68
2018-08-06T09:08:20.159Z,32.72
2018-08-06T09:10:49.556Z,32.39
2018-08-06T09:13:18.760Z,30.88
2018-08-06T09:15:48.315Z,30.28
2018-08-06T09:18:17.402Z,30.40
2018-08-06T09:20:46.667Z,30.57
2018-08-06T09:23:15.949Z,30.70
2018-08-06T09:25:45.030Z,30.64
2018-08-06T09:28:13.968Z,30.15
2018-08-06T09:30:43.246Z,30.46
2018-08-06T09:33:12.349Z,30.97
2018-08-06T09:35:41.434Z,31.21
2018-08-06T09:38:10.890Z,29.72
2018-08-06T09:40:39.918Z,29.80
2018-08-06T09:43:08.933Z,29.91
2018-08-06T09:45:38.019Z,31.40
2018-08-06T09:48:07.114Z,32.67
2018-08-06T09:50:36.418Z,33.18
2018-08-06T09:53:05.950Z,34.04
2018-08-06T09:55:34.909Z,34.56
2018-08-06T09:58:04.095Z,34.75
2018-08-06T10:00:38.470Z,35.52
2018-08-06T10:03:07.438Z,35.69
2018-08-06T10:05:36.569Z,34.60
2018-08-06T10:08:05.839Z,33.09
2018-08-06T10:10:34.903Z,35.82
2018-08-06T10:13:03.998Z,33.67
2018-08-06T10:15:33.001Z,33.89
2018-08-06T10:18:02.566Z,35.31
2018-08-06T10:20:31.724Z,35.02
2018-08-06T10:23:01.003Z,34.92
2018-08-06T10:25:29.925Z,34.40
2018-08-06T10:27:58.919Z,31.91
2018-08-06T10:30:28.107Z,32.55
2018-08-06T10:32:57.199Z,32.62
2018-08-06T10:35:26.276Z,33.48
2018-08-06T10:37:55.894Z,34.92
2018-08-06T10:40:25.456Z,34.09
2018-08-06T10:42:54.703Z,34.93
2018-08-06T10:45:25.283Z,34.49
2018-08-06T10:47:55.369Z,34.44
2018-08-06T10:50:24.526Z,34.67
2018-08-06T10:52:53.802Z,35.03
2018-08-06T10:55:22.983Z,35.88
2018-08-06T10:57:52.219Z,36.77
2018-08-06T11:00:23.003Z,35.71
2018-08-06T11:02:52.655Z,33.85
2018-08-06T11:05:22.420Z,32.37
2018-08-06T11:07:51.434Z,34.55
2018-08-06T11:10:23.058Z,35.25
2018-08-06T11:12:52.338Z,33.65
2018-08-06T11:15:23.040Z,33.99
2018-08-06T11:17:52.178Z,32.17
2018-08-06T11:20:21.937Z,33.18
2018-08-06T11:22:51.175Z,32.05
2018-08-06T11:25:22.054Z,32.92
2018-08-06T11:27:51.226Z,31.65
2018-08-06T11:30:23.374Z,31.53
2018-08-06T11:32:53.680Z,33.35
2018-08-06T11:35:22.807Z,32.76
2018-08-06T11:37:52.103Z,32.93
2018-08-06T11:40:21.188Z,33.91
2018-08-06T11:42:50.131Z,34.29
2018-08-06T11:45:21.088Z,33.09
2018-08-06T11:47:50.323Z,32.24
2018-08-06T11:50:19.818Z,31.66
2018-08-06T11:52:49.138Z,32.17
2018-08-06T11:55:18.586Z,33.25
2018-08-06T11:57:48.146Z,32.94
2018-08-06T12:00:20.573Z,32.62
2018-08-06T12:02:49.827Z,32.81
2018-08-06T12:05:19.283Z,32.78
2018-08-06T12:07:48.418Z,33.30
2018-08-06T12:10:18.959Z,33.07
2018-08-06T12:12:49.054Z,32.36
2018-08-06T12:15:18.825Z,32.67
2018-08-06T12:17:48.618Z,32.55
2018-08-06T12:20:19.334Z,32.39
2018-08-06T12:22:50.125Z,32.92
2018-08-06T12:25:19.915Z,33.27
2018-08-06T12:27:49.866Z,33.47
2018-08-06T12:30:20.578Z,33.06
2018-08-06T12:32:50.639Z,33.10
2018-08-06T12:35:20.131Z,33.48
2018-08-06T12:37:49.833Z,33.73
2018-08-06T12:40:21.489Z,32.80
2018-08-06T12:42:50.694Z,32.40
2018-08-06T12:45:19.980Z,33.15
2018-08-06T12:47:49.287Z,33.77
2018-08-06T12:50:18.682Z,34.09
2018-08-06T12:52:48.041Z,33.90
2018-08-06T12:55:18.469Z,34.21
2018-08-06T12:57:48.249Z,34.03
2018-08-06T13:00:21.434Z,32.65
2018-08-06T13:02:51.690Z,33.09
2018-08-06T13:05:21.787Z,33.39
2018-08-06T13:07:51.507Z,32.89
2018-08-06T13:10:21.185Z,33.70
2018-08-06T13:12:50.218Z,34.14
2018-08-06T13:15:19.782Z,34.36
2018-08-06T13:17:50.693Z,34.42
2018-08-06T13:20:20.969Z,34.45
2018-08-06T13:22:50.202Z,33.57
2018-08-06T13:25:19.489Z,33.94
2018-08-06T13:27:49.328Z,33.39
2018-08-06T13:30:18.229Z,33.77
2018-08-06T13:32:47.550Z,33.59
2018-08-06T13:35:17.083Z,33.82
2018-08-06T13:37:46.345Z,33.71
2018-08-06T13:40:15.638Z,33.53
2018-08-06T13:42:44.729Z,33.42
2018-08-06T13:45:14.651Z,33.95
2018-08-06T13:47:43.981Z,33.73
2018-08-06T13:50:14.435Z,34.46
2018-08-06T13:52:44.136Z,34.92
2018-08-06T13:55:14.152Z,34.86
2018-08-06T13:57:43.451Z,33.97
2018-08-06T14:00:19.973Z,33.51
2018-08-06T14:02:49.196Z,33.42
2018-08-06T14:05:19.587Z,33.85
2018-08-06T14:07:49.426Z,34.26
2018-08-06T14:10:19.139Z,33.97
2018-08-06T14:12:49.063Z,34.19
2018-08-06T14:15:19.340Z,34.68
2018-08-06T14:17:48.870Z,33.75
2018-08-06T14:20:19.240Z,34.19
2018-08-06T14:22:49.216Z,33.41
2018-08-06T14:25:19.386Z,33.64
2018-08-06T14:27:49.606Z,34.04
2018-08-06T14:30:18.831Z,34.48
2018-08-06T14:32:47.938Z,34.72
2018-08-06T14:35:17.444Z,34.89
2018-08-06T14:37:47.655Z,34.87
2018-08-06T14:40:18.674Z,33.91
2018-08-06T14:42:48.099Z,34.54
2018-08-06T14:45:18.546Z,34.31
2018-08-06T14:47:47.631Z,34.73
2018-08-06T14:50:17.097Z,34.82
2018-08-06T14:52:46.255Z,35.03
2018-08-06T14:55:15.988Z,34.21
2018-08-06T14:57:45.230Z,34.63
2018-08-06T15:00:17.375Z,34.87
2018-08-06T15:02:47.157Z,34.89
2018-08-06T15:05:16.427Z,34.82
2018-08-06T15:07:45.397Z,34.89
2018-08-06T15:10:15.474Z,34.91
2018-08-06T15:12:44.961Z,34.85
2018-08-06T15:15:15.831Z,34.84
2018-08-06T15:17:45.832Z,35.02
2018-08-06T15:20:16.803Z,34.99
2018-08-06T15:22:46.409Z,34.73
2018-08-06T15:25:20.567Z,34.96
2018-08-06T15:27:50.166Z,34.25
2018-08-06T15:30:19.878Z,33.75
2018-08-06T15:32:48.976Z,33.99
2018-08-06T15:35:18.814Z,34.32
2018-08-06T15:37:47.983Z,34.40
2018-08-06T15:40:19.294Z,34.05
2018-08-06T15:42:49.391Z,34.38
2018-08-06T15:45:18.778Z,34.46
2018-08-06T15:47:48.316Z,34.37
2018-08-06T15:50:19.071Z,34.48
2018-08-06T15:52:48.480Z,34.81
2018-08-06T15:55:17.455Z,34.66
2018-08-06T15:57:47.149Z,34.84
2018-08-06T16:00:17.312Z,34.68
2018-08-06T16:02:46.578Z,34.74
2018-08-06T16:05:15.710Z,34.32
2018-08-06T16:07:45.270Z,34.09
2018-08-06T16:10:14.882Z,34.47
2018-08-06T16:12:44.182Z,34.81
2018-08-06T16:15:14.598Z,34.48
2018-08-06T16:17:44.551Z,34.48
2018-08-06T16:20:15.102Z,34.67
2018-08-06T16:22:45.216Z,34.73
2018-08-06T16:25:14.712Z,34.38
2018-08-06T16:27:44.165Z,34.56
2018-08-06T16:30:18.279Z,34.47
2018-08-06T16:32:48.979Z,34.52
2018-08-06T16:35:19.652Z,34.13
2018-08-06T16:37:49.565Z,34.06
2018-08-06T16:40:18.997Z,34.29
2018-08-06T16:42:48.528Z,34.29
2018-08-06T16:45:17.526Z,34.21
2018-08-06T16:47:46.553Z,34.32
2018-08-06T16:50:16.543Z,34.22
2018-08-06T16:52:45.891Z,34.03
2018-08-06T16:55:15.459Z,34.09
2018-08-06T16:57:44.430Z,33.78
2018-08-06T17:00:17.643Z,33.75
2018-08-06T17:02:46.845Z,33.73
2018-08-06T17:05:15.806Z,33.81
2018-08-06T17:07:45.958Z,33.85
2018-08-06T17:10:17.090Z,33.77
2018-08-06T17:12:48.465Z,33.58
2018-08-06T17:15:18.664Z,33.60
2018-08-06T17:17:48.330Z,33.55
2018-08-06T17:20:19.103Z,33.47
2018-08-06T17:22:49.187Z,33.52
2018-08-06T17:25:18.208Z,33.51
2018-08-06T17:27:47.215Z,33.51
2018-08-06T17:30:16.859Z,33.40
2018-08-06T17:32:46.528Z,33.32
2018-08-06T17:35:16.058Z,33.32
2018-08-06T17:37:45.850Z,33.38
2018-08-06T17:40:16.784Z,33.27
2018-08-06T17:42:46.303Z,33.19
2018-08-06T17:45:19.859Z,33.22
2018-08-06T17:47:49.319Z,33.07
2018-08-06T17:50:20.134Z,33.17
2018-08-06T17:52:50.150Z,33.02
2018-08-06T17:55:20.339Z,33.07
2018-08-06T17:57:50.177Z,33.00
2018-08-06T18:00:20.083Z,33.05
2018-08-06T18:02:49.390Z,33.07
2018-08-06T18:05:19.012Z,33.04
2018-08-06T18:07:48.626Z,32.99
2018-08-06T18:10:18.471Z,32.91
2018-08-06T18:12:48.115Z,32.75
2018-08-06T18:15:17.309Z,32.83
2018-08-06T18:17:46.598Z,32.81
2018-08-06T18:20:18.486Z,32.73
2018-08-06T18:22:47.888Z,32.59
2018-08-06T18:25:18.816Z,32.50
2018-08-06T18:27:48.919Z,32.55
2018-08-06T18:30:19.702Z,32.48
2018-08-06T18:32:48.971Z,32.51
2018-08-06T18:35:19.202Z,32.38
2018-08-06T18:37:48.565Z,32.15
2018-08-06T18:40:19.340Z,31.96
2018-08-06T18:42:48.870Z,31.93
2018-08-06T18:45:20.253Z,31.88
2018-08-06T18:47:50.284Z,31.86
2018-08-06T18:50:19.990Z,31.74
2018-08-06T18:52:49.924Z,31.57
2018-08-06T18:55:19.870Z,31.32
2018-08-06T18:57:49.246Z,31.01
2018-08-06T19:00:22.644Z,30.83
2018-08-06T19:02:52.125Z,30.75
2018-08-06T19:05:21.238Z,30.60
2018-08-06T19:07:50.619Z,30.53
2018-08-06T19:10:19.903Z,30.38
2018-08-06T19:12:54.536Z,30.36
2018-08-06T19:15:23.631Z,30.30
2018-08-06T19:17:57.967Z,30.17
2018-08-06T19:20:27.040Z,30.18
2018-08-06T19:22:56.255Z,30.05
2018-08-06T19:25:27.225Z,30.07
2018-08-06T19:27:56.801Z,29.96
2018-08-06T19:30:31.126Z,29.86
2018-08-06T19:33:01.335Z,29.87
2018-08-06T19:35:30.575Z,29.82
2018-08-06T19:37:59.819Z,29.75
2018-08-06T19:40:28.883Z,29.56
2018-08-06T19:43:03.267Z,29.46
2018-08-06T19:45:32.501Z,29.16
2018-08-06T19:48:01.498Z,29.10
2018-08-06T19:50:35.774Z,28.95
2018-08-06T19:53:04.776Z,28.80
2018-08-06T19:55:39.098Z,28.69
2018-08-06T19:58:08.051Z,28.66
2018-08-06T20:00:37.094Z,28.60
2018-08-06T20:03:06.238Z,28.41
2018-08-06T20:05:35.230Z,28.39
2018-08-06T20:08:04.235Z,28.22
2018-08-06T20:10:33.233Z,28.12
2018-08-06T20:13:02.262Z,28.05
2018-08-06T20:15:31.240Z,27.99
2018-08-06T20:18:00.272Z,27.97
2018-08-06T20:20:29.158Z,27.84
2018-08-06T20:22:58.108Z,27.71
2018-08-06T20:25:27.075Z,27.84
2018-08-06T20:27:56.122Z,27.73
2018-08-06T20:30:25.603Z,27.68
2018-08-06T20:32:54.549Z,27.58
2018-08-06T20:35:23.555Z,27.40
2018-08-06T20:37:52.555Z,27.39
2018-08-06T20:40:21.532Z,27.33
2018-08-06T20:42:50.565Z,27.26
2018-08-06T20:45:20.694Z,27.14
2018-08-06T20:47:49.700Z,27.15
2018-08-06T20:50:20.142Z,27.03
2018-08-06T20:52:50.604Z,26.98
2018-08-06T20:55:19.687Z,27.01
2018-08-06T20:57:49.542Z,26.84
2018-08-06T21:00:20.882Z,26.83
2018-08-06T21:02:50.682Z,26.84
2018-08-06T21:05:19.880Z,26.75
2018-08-06T21:07:49.094Z,26.67
2018-08-06T21:10:19.608Z,26.61
2018-08-06T21:12:49.338Z,26.65
2018-08-06T21:15:18.417Z,26.57
2018-08-06T21:17:47.412Z,26.49
2018-08-06T21:20:18.198Z,26.20
2018-08-06T21:22:48.837Z,26.13
2018-08-06T21:25:17.903Z,26.10
2018-08-06T21:27:47.955Z,26.13
2018-08-06T21:30:18.718Z,26.04
2018-08-06T21:32:51.086Z,25.98
2018-08-06T21:35:20.877Z,25.92
2018-08-06T21:37:51.105Z,25.88
2018-08-06T21:40:20.728Z,25.92
2018-08-06T21:42:50.203Z,25.93
2018-08-06T21:45:19.493Z,25.89
2018-08-06T21:47:48.887Z,25.89
2018-08-06T21:50:17.903Z,25.83
2018-08-06T21:52:46.951Z,25.86
2018-08-06T21:55:15.950Z,25.78
2018-08-06T21:57:44.916Z,25.77
2018-08-06T22:00:38.262Z,25.71
2018-08-06T22:03:15.366Z,25.84
2018-08-06T22:05:44.743Z,25.92
2018-08-06T22:08:13.770Z,25.81
2018-08-06T22:10:42.767Z,25.88
2018-08-06T22:13:11.908Z,25.82
2018-08-06T22:15:40.951Z,25.75
2018-08-06T22:18:11.139Z,25.84
2018-08-06T22:20:40.148Z,25.75
2018-08-06T22:23:09.311Z,25.77
2018-08-06T22:25:38.400Z,25.82
2018-08-06T22:28:09.115Z,25.75
2018-08-06T22:30:38.109Z,25.63
2018-08-06T22:33:07.151Z,25.55
2018-08-06T22:35:36.287Z,25.53
2018-08-06T22:38:05.299Z,25.53
2018-08-06T22:40:34.296Z,25.60
2018-08-06T22:43:03.260Z,25.44
2018-08-06T22:45:32.212Z,25.35
2018-08-06T22:48:01.182Z,25.23
2018-08-06T22:50:30.131Z,25.31
2018-08-06T22:52:59.092Z,25.16
2018-08-06T22:55:28.072Z,24.92
2018-08-06T22:57:57.290Z,24.57
2018-08-06T23:00:26.227Z,24.76
2018-08-06T23:02:55.158Z,24.92
2018-08-06T23:05:24.246Z,24.71
2018-08-06T23:07:53.242Z,24.73
2018-08-06T23:10:22.323Z,24.67
2018-08-06T23:12:51.242Z,24.55
2018-08-06T23:15:20.322Z,24.46
2018-08-06T23:17:49.301Z,24.47
2018-08-06T23:20:18.255Z,24.46
2018-08-06T23:22:47.167Z,24.22
2018-08-06T23:25:16.186Z,24.18
2018-08-06T23:27:45.743Z,24.30
2018-08-06T23:30:15.595Z,24.31
2018-08-06T23:32:45.591Z,23.94
2018-08-06T23:35:14.801Z,23.76
2018-08-06T23:37:44.862Z,23.86
2018-08-06T23:40:14.488Z,23.84
2018-08-06T23:42:43.858Z,23.96
2018-08-06T23:45:14.551Z,23.81
2018-08-06T23:47:43.662Z,23.81
2018-08-06T23:50:13.999Z,23.82
2018-08-06T23:52:44.334Z,23.69
2018-08-06T23:55:14.563Z,23.66
2018-08-06T23:57:43.544Z,23.77
